sensor_id;sensor_type;location;lat;lon;timestamp;pressure;altitude;pressure_sealevel;temperature;humidity
54924;BME280;40825;52.270;20.984;2023-05-09T00:01:47;101920.38;;;6.71;61.92
54924;BME280;40825;52.270;20.984;2023-05-09T00:04:12;101921.20;;;6.70;62.06
54924;BME280;40825;52.270;20.984;2023-05-09T00:06:40;101916.95;;;6.66;62.37
54924;BME280;40825;52.270;20.984;2023-05-09T00:09:05;101915.00;;;6.61;62.16
54924;BME280;40825;52.270;20.984;2023-05-09T00:11:31;101911.98;;;6.57;62.28
54924;BME280;40825;52.270;20.984;2023-05-09T00:13:57;101908.45;;;6.55;62.47
54924;BME280;40825;52.270;20.984;2023-05-09T00:16:22;101908.55;;;6.51;62.21
54924;BME280;40825;52.270;20.984;2023-05-09T00:18:48;101908.02;;;6.49;62.26
54924;BME280;40825;52.270;20.984;2023-05-09T00:21:14;101914.23;;;6.47;62.29
54924;BME280;40825;52.270;20.984;2023-05-09T00:23:39;101913.85;;;6.45;62.66
54924;BME280;40825;52.270;20.984;2023-05-09T00:26:05;101909.48;;;6.45;62.74
54924;BME280;40825;52.270;20.984;2023-05-09T00:28:31;101906.96;;;6.43;62.79
54924;BME280;40825;52.270;20.984;2023-05-09T00:30:57;101903.36;;;6.41;63.02
54924;BME280;40825;52.270;20.984;2023-05-09T00:33:23;101901.52;;;6.40;63.59
54924;BME280;40825;52.270;20.984;2023-05-09T00:35:54;101902.54;;;6.39;63.73
54924;BME280;40825;52.270;20.984;2023-05-09T00:38:22;101900.11;;;6.40;63.85
54924;BME280;40825;52.270;20.984;2023-05-09T00:40:48;101899.64;;;6.42;64.08
54924;BME280;40825;52.270;20.984;2023-05-09T00:43:13;101901.30;;;6.43;64.37
54924;BME280;40825;52.270;20.984;2023-05-09T00:45:42;101900.09;;;6.42;64.54
54924;BME280;40825;52.270;20.984;2023-05-09T00:48:07;101900.20;;;6.41;65.03
54924;BME280;40825;52.270;20.984;2023-05-09T00:50:33;101901.27;;;6.39;65.10
54924;BME280;40825;52.270;20.984;2023-05-09T00:52:59;101900.09;;;6.36;65.04
54924;BME280;40825;52.270;20.984;2023-05-09T00:55:25;101900.54;;;6.37;65.28
54924;BME280;40825;52.270;20.984;2023-05-09T00:57:51;101901.77;;;6.39;65.43
54924;BME280;40825;52.270;20.984;2023-05-09T01:00:17;101900.28;;;6.40;65.60
54924;BME280;40825;52.270;20.984;2023-05-09T01:02:45;101896.04;;;6.42;65.94
54924;BME280;40825;52.270;20.984;2023-05-09T01:05:13;101897.80;;;6.42;66.14
54924;BME280;40825;52.270;20.984;2023-05-09T01:07:53;101895.29;;;6.40;66.25
54924;BME280;40825;52.270;20.984;2023-05-09T01:10:47;101895.53;;;6.40;66.31
54924;BME280;40825;52.270;20.984;2023-05-09T01:13:36;101900.24;;;6.38;66.43
54924;BME280;40825;52.270;20.984;2023-05-09T01:16:45;101901.31;;;6.38;66.59
54924;BME280;40825;52.270;20.984;2023-05-09T01:21:48;101895.19;;;6.42;67.01
54924;BME280;40825;52.270;20.984;2023-05-09T01:29:23;101897.02;;;6.25;67.24
54924;BME280;40825;52.270;20.984;2023-05-09T01:31:54;101899.17;;;6.18;67.77
54924;BME280;40825;52.270;20.984;2023-05-09T01:34:23;101896.66;;;6.15;67.73
54924;BME280;40825;52.270;20.984;2023-05-09T01:36:50;101898.09;;;6.12;67.38
54924;BME280;40825;52.270;20.984;2023-05-09T01:39:18;101898.90;;;6.09;67.35
54924;BME280;40825;52.270;20.984;2023-05-09T01:41:45;101899.75;;;6.04;67.59
54924;BME280;40825;52.270;20.984;2023-05-09T01:44:12;101897.29;;;6.02;67.69
54924;BME280;40825;52.270;20.984;2023-05-09T01:46:41;101898.30;;;6.00;67.97
54924;BME280;40825;52.270;20.984;2023-05-09T01:49:07;101895.44;;;5.98;68.31
54924;BME280;40825;52.270;20.984;2023-05-09T01:51:35;101894.39;;;5.96;68.49
54924;BME280;40825;52.270;20.984;2023-05-09T01:54:02;101897.03;;;5.94;68.71
54924;BME280;40825;52.270;20.984;2023-05-09T01:56:30;101898.64;;;5.91;68.79
54924;BME280;40825;52.270;20.984;2023-05-09T01:58:56;101900.02;;;5.89;69.14
54924;BME280;40825;52.270;20.984;2023-05-09T02:01:23;101896.34;;;5.87;69.25
54924;BME280;40825;52.270;20.984;2023-05-09T02:03:50;101892.95;;;5.86;69.40
54924;BME280;40825;52.270;20.984;2023-05-09T02:06:21;101891.23;;;5.87;69.52
54924;BME280;40825;52.270;20.984;2023-05-09T02:08:48;101890.00;;;5.89;69.83
54924;BME280;40825;52.270;20.984;2023-05-09T02:11:14;101889.15;;;5.88;69.79
54924;BME280;40825;52.270;20.984;2023-05-09T02:13:40;101888.75;;;5.87;69.83
54924;BME280;40825;52.270;20.984;2023-05-09T02:16:06;101889.40;;;5.85;70.04
54924;BME280;40825;52.270;20.984;2023-05-09T02:18:32;101889.82;;;5.82;70.28
54924;BME280;40825;52.270;20.984;2023-05-09T02:21:00;101886.27;;;5.83;70.40
54924;BME280;40825;52.270;20.984;2023-05-09T02:23:26;101888.13;;;5.82;70.55
54924;BME280;40825;52.270;20.984;2023-05-09T02:25:52;101887.12;;;5.79;70.66
54924;BME280;40825;52.270;20.984;2023-05-09T02:28:20;101890.33;;;5.73;70.67
54924;BME280;40825;52.270;20.984;2023-05-09T02:30:48;101886.33;;;5.73;70.87
54924;BME280;40825;52.270;20.984;2023-05-09T02:33:14;101888.58;;;5.71;70.87
54924;BME280;40825;52.270;20.984;2023-05-09T02:35:43;101888.29;;;5.70;71.26
54924;BME280;40825;52.270;20.984;2023-05-09T02:38:09;101890.02;;;5.66;71.32
54924;BME280;40825;52.270;20.984;2023-05-09T02:40:35;101887.39;;;5.64;71.35
54924;BME280;40825;52.270;20.984;2023-05-09T02:43:01;101889.49;;;5.62;71.83
54924;BME280;40825;52.270;20.984;2023-05-09T02:45:27;101888.91;;;5.58;71.69
54924;BME280;40825;52.270;20.984;2023-05-09T02:47:52;101889.77;;;5.51;72.13
54924;BME280;40825;52.270;20.984;2023-05-09T02:50:18;101890.88;;;5.46;71.96
54924;BME280;40825;52.270;20.984;2023-05-09T02:52:44;101891.45;;;5.41;71.91
54924;BME280;40825;52.270;20.984;2023-05-09T02:55:10;101892.16;;;5.39;71.54
54924;BME280;40825;52.270;20.984;2023-05-09T02:57:36;101893.23;;;5.36;71.83
54924;BME280;40825;52.270;20.984;2023-05-09T03:00:03;101893.68;;;5.33;71.65
54924;BME280;40825;52.270;20.984;2023-05-09T03:02:33;101893.66;;;5.31;71.85
54924;BME280;40825;52.270;20.984;2023-05-09T03:04:58;101894.16;;;5.29;71.87
54924;BME280;40825;52.270;20.984;2023-05-09T03:07:24;101893.46;;;5.29;71.83
54924;BME280;40825;52.270;20.984;2023-05-09T03:09:49;101896.14;;;5.31;72.18
54924;BME280;40825;52.270;20.984;2023-05-09T03:12:15;101894.12;;;5.29;72.16
54924;BME280;40825;52.270;20.984;2023-05-09T03:14:41;101895.39;;;5.29;72.03
54924;BME280;40825;52.270;20.984;2023-05-09T03:17:06;101900.35;;;5.29;72.56
54924;BME280;40825;52.270;20.984;2023-05-09T03:19:32;101894.10;;;5.27;73.05
54924;BME280;40825;52.270;20.984;2023-05-09T03:21:58;101894.90;;;5.28;72.79
54924;BME280;40825;52.270;20.984;2023-05-09T03:24:25;101895.70;;;5.29;73.78
54924;BME280;40825;52.270;20.984;2023-05-09T03:26:52;101891.17;;;5.29;73.18
54924;BME280;40825;52.270;20.984;2023-05-09T03:29:18;101892.94;;;5.29;73.20
54924;BME280;40825;52.270;20.984;2023-05-09T03:31:43;101891.33;;;5.31;73.13
54924;BME280;40825;52.270;20.984;2023-05-09T03:34:08;101895.27;;;5.37;73.27
54924;BME280;40825;52.270;20.984;2023-05-09T03:36:42;101897.44;;;5.41;73.28
54924;BME280;40825;52.270;20.984;2023-05-09T03:39:08;101898.36;;;5.43;74.22
54924;BME280;40825;52.270;20.984;2023-05-09T03:41:35;101901.66;;;5.44;74.08
54924;BME280;40825;52.270;20.984;2023-05-09T03:44:01;101902.12;;;5.52;73.85
54924;BME280;40825;52.270;20.984;2023-05-09T03:46:27;101906.27;;;5.55;74.40
54924;BME280;40825;52.270;20.984;2023-05-09T03:48:52;101911.98;;;5.55;74.12
54924;BME280;40825;52.270;20.984;2023-05-09T03:51:18;101911.05;;;5.57;73.95
54924;BME280;40825;52.270;20.984;2023-05-09T03:53:45;101908.02;;;5.62;74.20
54924;BME280;40825;52.270;20.984;2023-05-09T03:56:12;101903.02;;;5.69;74.15
54924;BME280;40825;52.270;20.984;2023-05-09T03:58:37;101899.41;;;5.77;74.17
54924;BME280;40825;52.270;20.984;2023-05-09T04:01:03;101902.38;;;5.89;74.37
54924;BME280;40825;52.270;20.984;2023-05-09T04:03:28;101902.46;;;5.99;74.40
54924;BME280;40825;52.270;20.984;2023-05-09T04:05:54;101899.35;;;6.08;74.35
54924;BME280;40825;52.270;20.984;2023-05-09T04:08:20;101898.54;;;6.20;74.65
54924;BME280;40825;52.270;20.984;2023-05-09T04:10:45;101898.73;;;6.33;74.68
54924;BME280;40825;52.270;20.984;2023-05-09T04:13:11;101894.69;;;6.48;74.94
54924;BME280;40825;52.270;20.984;2023-05-09T04:15:36;101895.92;;;6.63;75.04
54924;BME280;40825;52.270;20.984;2023-05-09T04:18:02;101896.02;;;6.77;75.14
54924;BME280;40825;52.270;20.984;2023-05-09T04:20:28;101894.95;;;6.92;74.97
54924;BME280;40825;52.270;20.984;2023-05-09T04:22:53;101891.48;;;7.02;75.02
54924;BME280;40825;52.270;20.984;2023-05-09T04:25:18;101893.02;;;7.13;75.30
54924;BME280;40825;52.270;20.984;2023-05-09T04:27:44;101895.35;;;7.25;74.83
54924;BME280;40825;52.270;20.984;2023-05-09T04:30:11;101901.09;;;7.47;74.59
54924;BME280;40825;52.270;20.984;2023-05-09T04:32:36;101898.80;;;7.76;74.70
54924;BME280;40825;52.270;20.984;2023-05-09T04:35:03;101903.42;;;8.14;74.84
54924;BME280;40825;52.270;20.984;2023-05-09T04:37:30;101903.98;;;8.52;74.27
54924;BME280;40825;52.270;20.984;2023-05-09T04:39:57;101904.16;;;8.89;73.27
54924;BME280;40825;52.270;20.984;2023-05-09T04:42:22;101899.34;;;9.33;74.55
54924;BME280;40825;52.270;20.984;2023-05-09T04:44:48;101898.79;;;9.81;72.53
54924;BME280;40825;52.270;20.984;2023-05-09T04:47:13;101904.89;;;10.12;68.86
54924;BME280;40825;52.270;20.984;2023-05-09T04:49:39;101901.92;;;10.37;66.52
54924;BME280;40825;52.270;20.984;2023-05-09T04:52:05;101901.75;;;10.61;62.85
54924;BME280;40825;52.270;20.984;2023-05-09T04:54:31;101900.45;;;10.65;58.69
54924;BME280;40825;52.270;20.984;2023-05-09T04:56:56;101902.20;;;10.67;58.08
54924;BME280;40825;52.270;20.984;2023-05-09T04:59:22;101901.51;;;10.68;60.56
54924;BME280;40825;52.270;20.984;2023-05-09T05:01:48;101898.80;;;10.74;60.44
54924;BME280;40825;52.270;20.984;2023-05-09T05:04:13;101900.82;;;10.73;58.95
54924;BME280;40825;52.270;20.984;2023-05-09T05:06:39;101905.52;;;10.76;61.96
54924;BME280;40825;52.270;20.984;2023-05-09T05:09:04;101903.56;;;10.75;60.02
54924;BME280;40825;52.270;20.984;2023-05-09T05:11:30;101903.27;;;10.68;57.36
54924;BME280;40825;52.270;20.984;2023-05-09T05:13:55;101902.52;;;10.62;55.17
54924;BME280;40825;52.270;20.984;2023-05-09T05:16:21;101903.52;;;10.57;54.82
54924;BME280;40825;52.270;20.984;2023-05-09T05:18:46;101904.15;;;10.53;55.20
54924;BME280;40825;52.270;20.984;2023-05-09T05:21:12;101904.98;;;10.51;56.98
54924;BME280;40825;52.270;20.984;2023-05-09T05:23:37;101904.80;;;10.55;57.84
54924;BME280;40825;52.270;20.984;2023-05-09T05:26:03;101907.45;;;10.63;58.84
54924;BME280;40825;52.270;20.984;2023-05-09T05:28:29;101901.55;;;10.68;57.68
54924;BME280;40825;52.270;20.984;2023-05-09T05:30:55;101904.36;;;10.70;56.62
54924;BME280;40825;52.270;20.984;2023-05-09T05:33:20;101902.49;;;10.75;57.46
54924;BME280;40825;52.270;20.984;2023-05-09T05:35:46;101903.70;;;10.80;54.81
54924;BME280;40825;52.270;20.984;2023-05-09T05:38:11;101900.79;;;10.87;54.46
54924;BME280;40825;52.270;20.984;2023-05-09T05:40:37;101899.41;;;10.91;54.29
54924;BME280;40825;52.270;20.984;2023-05-09T05:43:02;101900.36;;;10.94;53.23
54924;BME280;40825;52.270;20.984;2023-05-09T05:45:28;101895.95;;;11.01;54.85
54924;BME280;40825;52.270;20.984;2023-05-09T05:47:54;101898.06;;;10.99;52.08
54924;BME280;40825;52.270;20.984;2023-05-09T05:50:20;101894.71;;;11.04;53.59
54924;BME280;40825;52.270;20.984;2023-05-09T05:52:46;101900.67;;;11.14;53.42
54924;BME280;40825;52.270;20.984;2023-05-09T05:55:11;101901.94;;;11.24;52.66
54924;BME280;40825;52.270;20.984;2023-05-09T05:57:37;101895.22;;;11.33;52.98
54924;BME280;40825;52.270;20.984;2023-05-09T06:00:05;101891.40;;;11.42;52.11
54924;BME280;40825;52.270;20.984;2023-05-09T06:02:34;101894.96;;;11.47;49.25
54924;BME280;40825;52.270;20.984;2023-05-09T06:05:00;101897.09;;;11.42;48.20
54924;BME280;40825;52.270;20.984;2023-05-09T06:07:26;101897.75;;;11.48;49.07
54924;BME280;40825;52.270;20.984;2023-05-09T06:09:51;101895.23;;;11.64;50.17
54924;BME280;40825;52.270;20.984;2023-05-09T06:12:17;101895.55;;;11.78;48.98
54924;BME280;40825;52.270;20.984;2023-05-09T06:14:42;101894.30;;;11.83;48.25
54924;BME280;40825;52.270;20.984;2023-05-09T06:17:08;101892.88;;;11.97;49.44
54924;BME280;40825;52.270;20.984;2023-05-09T06:19:33;101892.11;;;12.18;48.08
54924;BME280;40825;52.270;20.984;2023-05-09T06:21:59;101896.95;;;12.28;47.44
54924;BME280;40825;52.270;20.984;2023-05-09T06:24:24;101896.67;;;12.50;50.13
54924;BME280;40825;52.270;20.984;2023-05-09T06:26:50;101897.58;;;12.77;49.92
54924;BME280;40825;52.270;20.984;2023-05-09T06:29:17;101895.06;;;13.00;49.52
54924;BME280;40825;52.270;20.984;2023-05-09T06:31:42;101895.97;;;13.16;47.74
54924;BME280;40825;52.270;20.984;2023-05-09T06:34:08;101894.84;;;13.33;47.41
54924;BME280;40825;52.270;20.984;2023-05-09T06:36:34;101895.00;;;13.51;47.30
54924;BME280;40825;52.270;20.984;2023-05-09T06:38:59;101894.92;;;13.66;46.93
54924;BME280;40825;52.270;20.984;2023-05-09T06:41:25;101895.52;;;13.81;44.93
54924;BME280;40825;52.270;20.984;2023-05-09T06:43:51;101899.25;;;13.83;42.53
54924;BME280;40825;52.270;20.984;2023-05-09T06:46:17;101899.19;;;13.89;42.42
54924;BME280;40825;52.270;20.984;2023-05-09T06:48:43;101899.90;;;13.98;43.02
54924;BME280;40825;52.270;20.984;2023-05-09T06:51:08;101897.98;;;14.10;42.42
54924;BME280;40825;52.270;20.984;2023-05-09T06:53:36;101894.40;;;14.20;42.32
54924;BME280;40825;52.270;20.984;2023-05-09T06:56:01;101892.08;;;14.35;43.82
54924;BME280;40825;52.270;20.984;2023-05-09T06:58:27;101889.08;;;14.46;40.88
54924;BME280;40825;52.270;20.984;2023-05-09T07:00:53;101886.98;;;14.49;39.43
54924;BME280;40825;52.270;20.984;2023-05-09T07:03:18;101886.48;;;14.53;39.81
54924;BME280;40825;52.270;20.984;2023-05-09T07:05:44;101880.77;;;14.62;39.32
54924;BME280;40825;52.270;20.984;2023-05-09T07:08:09;101877.84;;;14.75;38.16
54924;BME280;40825;52.270;20.984;2023-05-09T07:10:35;101872.52;;;14.85;37.82
54924;BME280;40825;52.270;20.984;2023-05-09T07:13:00;101871.45;;;15.00;38.17
54924;BME280;40825;52.270;20.984;2023-05-09T07:15:26;101868.05;;;15.20;37.66
54924;BME280;40825;52.270;20.984;2023-05-09T07:17:51;101862.25;;;15.38;36.94
54924;BME280;40825;52.270;20.984;2023-05-09T07:20:17;101862.66;;;15.59;36.90
54924;BME280;40825;52.270;20.984;2023-05-09T07:22:43;101861.46;;;15.81;37.96
54924;BME280;40825;52.270;20.984;2023-05-09T07:25:08;101863.18;;;15.99;36.44
54924;BME280;40825;52.270;20.984;2023-05-09T07:27:35;101865.45;;;16.17;35.32
54924;BME280;40825;52.270;20.984;2023-05-09T07:30:03;101862.67;;;16.31;34.43
54924;BME280;40825;52.270;20.984;2023-05-09T07:32:28;101857.48;;;16.66;34.86
54924;BME280;40825;52.270;20.984;2023-05-09T07:34:54;101856.82;;;16.89;31.66
54924;BME280;40825;52.270;20.984;2023-05-09T07:37:19;101855.63;;;17.03;31.21
54924;BME280;40825;52.270;20.984;2023-05-09T07:39:45;101851.98;;;17.33;34.07
54924;BME280;40825;52.270;20.984;2023-05-09T07:42:12;101845.91;;;17.50;32.74
54924;BME280;40825;52.270;20.984;2023-05-09T07:44:38;101850.98;;;17.50;29.92
54924;BME280;40825;52.270;20.984;2023-05-09T07:47:03;101848.05;;;17.45;28.97
54924;BME280;40825;52.270;20.984;2023-05-09T07:49:32;101850.59;;;17.46;27.85
54924;BME280;40825;52.270;20.984;2023-05-09T07:51:58;101844.54;;;17.48;28.12
54924;BME280;40825;52.270;20.984;2023-05-09T07:54:23;101841.30;;;17.36;27.87
54924;BME280;40825;52.270;20.984;2023-05-09T07:56:49;101843.11;;;17.37;27.86
54924;BME280;40825;52.270;20.984;2023-05-09T07:59:14;101837.86;;;17.40;28.26
54924;BME280;40825;52.270;20.984;2023-05-09T08:01:41;101840.73;;;17.40;28.28
54924;BME280;40825;52.270;20.984;2023-05-09T08:04:06;101839.55;;;17.27;27.94
54924;BME280;40825;52.270;20.984;2023-05-09T08:06:33;101838.99;;;17.16;26.65
54924;BME280;40825;52.270;20.984;2023-05-09T08:08:59;101832.92;;;17.06;28.10
54924;BME280;40825;52.270;20.984;2023-05-09T08:11:25;101834.41;;;17.01;28.40
54924;BME280;40825;52.270;20.984;2023-05-09T08:13:50;101829.62;;;16.94;28.23
54924;BME280;40825;52.270;20.984;2023-05-09T08:16:16;101836.73;;;16.90;27.94
54924;BME280;40825;52.270;20.984;2023-05-09T08:18:42;101831.49;;;16.80;27.49
54924;BME280;40825;52.270;20.984;2023-05-09T08:21:08;101824.65;;;16.76;27.30
54924;BME280;40825;52.270;20.984;2023-05-09T08:23:33;101823.68;;;16.73;28.09
54924;BME280;40825;52.270;20.984;2023-05-09T08:25:59;101818.52;;;16.90;29.71
54924;BME280;40825;52.270;20.984;2023-05-09T08:28:25;101819.24;;;17.10;29.08
54924;BME280;40825;52.270;20.984;2023-05-09T08:30:55;101816.48;;;17.33;27.37
54924;BME280;40825;52.270;20.984;2023-05-09T08:33:22;101812.55;;;17.75;26.96
54924;BME280;40825;52.270;20.984;2023-05-09T08:35:51;101806.10;;;18.19;27.70
54924;BME280;40825;52.270;20.984;2023-05-09T08:38:17;101812.21;;;18.52;26.50
54924;BME280;40825;52.270;20.984;2023-05-09T08:40:43;101811.57;;;18.72;26.75
54924;BME280;40825;52.270;20.984;2023-05-09T08:43:10;101807.66;;;18.68;25.79
54924;BME280;40825;52.270;20.984;2023-05-09T08:45:45;101804.70;;;18.91;25.89
54924;BME280;40825;52.270;20.984;2023-05-09T08:48:14;101799.66;;;19.50;26.02
54924;BME280;40825;52.270;20.984;2023-05-09T08:50:42;101800.23;;;20.07;25.98
54924;BME280;40825;52.270;20.984;2023-05-09T08:53:08;101797.87;;;20.41;25.51
54924;BME280;40825;52.270;20.984;2023-05-09T08:55:34;101797.63;;;20.40;24.63
54924;BME280;40825;52.270;20.984;2023-05-09T08:57:59;101795.17;;;20.45;24.36
54924;BME280;40825;52.270;20.984;2023-05-09T09:00:25;101789.99;;;20.62;24.71
54924;BME280;40825;52.270;20.984;2023-05-09T09:02:52;101786.75;;;20.65;23.82
54924;BME280;40825;52.270;20.984;2023-05-09T09:05:20;101785.48;;;20.80;23.37
54924;BME280;40825;52.270;20.984;2023-05-09T09:07:47;101781.98;;;20.65;22.83
54924;BME280;40825;52.270;20.984;2023-05-09T09:10:14;101787.74;;;20.73;23.39
54924;BME280;40825;52.270;20.984;2023-05-09T09:12:40;101782.73;;;21.07;23.07
54924;BME280;40825;52.270;20.984;2023-05-09T09:15:09;101780.00;;;21.27;22.30
54924;BME280;40825;52.270;20.984;2023-05-09T09:17:41;101781.23;;;21.47;22.80
54924;BME280;40825;52.270;20.984;2023-05-09T09:20:09;101785.46;;;21.63;22.86
54924;BME280;40825;52.270;20.984;2023-05-09T09:22:36;101783.13;;;21.70;22.91
54924;BME280;40825;52.270;20.984;2023-05-09T09:25:06;101780.34;;;21.85;22.83
54924;BME280;40825;52.270;20.984;2023-05-09T09:27:31;101777.19;;;22.12;23.37
54924;BME280;40825;52.270;20.984;2023-05-09T09:30:15;101779.95;;;22.32;23.23
54924;BME280;40825;52.270;20.984;2023-05-09T09:32:41;101772.15;;;22.08;22.86
54924;BME280;40825;52.270;20.984;2023-05-09T09:35:10;101772.43;;;21.99;22.51
54924;BME280;40825;52.270;20.984;2023-05-09T09:37:37;101768.38;;;22.03;22.49
54924;BME280;40825;52.270;20.984;2023-05-09T09:40:09;101765.55;;;22.29;22.98
54924;BME280;40825;52.270;20.984;2023-05-09T09:42:43;101763.78;;;22.52;22.00
54924;BME280;40825;52.270;20.984;2023-05-09T09:45:15;101758.75;;;22.77;23.39
54924;BME280;40825;52.270;20.984;2023-05-09T09:47:45;101753.38;;;23.08;22.12
54924;BME280;40825;52.270;20.984;2023-05-09T09:50:13;101753.39;;;22.87;21.26
54924;BME280;40825;52.270;20.984;2023-05-09T09:52:50;101753.85;;;22.77;20.75
54924;BME280;40825;52.270;20.984;2023-05-09T09:55:17;101756.30;;;22.65;20.92
54924;BME280;40825;52.270;20.984;2023-05-09T09:57:43;101752.89;;;22.60;20.83
54924;BME280;40825;52.270;20.984;2023-05-09T10:00:18;101746.53;;;22.49;21.09
54924;BME280;40825;52.270;20.984;2023-05-09T10:02:54;101745.66;;;22.66;21.92
54924;BME280;40825;52.270;20.984;2023-05-09T10:05:27;101743.29;;;22.67;21.43
54924;BME280;40825;52.270;20.984;2023-05-09T10:10:19;101747.86;;;22.43;21.25
54924;BME280;40825;52.270;20.984;2023-05-09T10:12:46;101740.50;;;22.09;20.69
54924;BME280;40825;52.270;20.984;2023-05-09T10:15:15;101742.00;;;21.82;20.96
54924;BME280;40825;52.270;20.984;2023-05-09T10:17:43;101737.98;;;21.87;21.78
54924;BME280;40825;52.270;20.984;2023-05-09T10:20:09;101733.49;;;22.06;21.79
54924;BME280;40825;52.270;20.984;2023-05-09T10:22:38;101730.83;;;21.71;20.86
54924;BME280;40825;52.270;20.984;2023-05-09T10:25:07;101726.63;;;21.40;21.57
54924;BME280;40825;52.270;20.984;2023-05-09T10:27:40;101727.78;;;21.37;21.45
54924;BME280;40825;52.270;20.984;2023-05-09T10:30:07;101727.52;;;21.39;21.97
54924;BME280;40825;52.270;20.984;2023-05-09T10:32:51;101721.70;;;21.43;21.80
54924;BME280;40825;52.270;20.984;2023-05-09T10:35:23;101721.83;;;21.51;21.86
54924;BME280;40825;52.270;20.984;2023-05-09T10:37:51;101723.52;;;21.13;21.58
54924;BME280;40825;52.270;20.984;2023-05-09T10:40:20;101722.53;;;20.97;21.98
54924;BME280;40825;52.270;20.984;2023-05-09T10:42:46;101722.53;;;20.75;22.39
54924;BME280;40825;52.270;20.984;2023-05-09T10:45:12;101716.91;;;20.58;23.19
54924;BME280;40825;52.270;20.984;2023-05-09T10:47:39;101712.17;;;20.52;22.85
54924;BME280;40825;52.270;20.984;2023-05-09T10:50:07;101711.80;;;20.40;22.70
54924;BME280;40825;52.270;20.984;2023-05-09T10:52:33;101707.88;;;20.39;23.08
54924;BME280;40825;52.270;20.984;2023-05-09T10:55:00;101709.64;;;20.39;23.17
54924;BME280;40825;52.270;20.984;2023-05-09T10:57:30;101705.17;;;20.18;22.81
54924;BME280;40825;52.270;20.984;2023-05-09T10:59:57;101701.34;;;20.03;23.31
54924;BME280;40825;52.270;20.984;2023-05-09T11:02:23;101702.01;;;19.76;23.16
54924;BME280;40825;52.270;20.984;2023-05-09T11:05:15;101699.85;;;19.40;23.03
54924;BME280;40825;52.270;20.984;2023-05-09T11:07:41;101699.05;;;19.14;23.26
54924;BME280;40825;52.270;20.984;2023-05-09T11:10:09;101693.34;;;19.05;24.06
54924;BME280;40825;52.270;20.984;2023-05-09T11:12:57;101687.35;;;19.05;23.65
54924;BME280;40825;52.270;20.984;2023-05-09T11:15:23;101681.58;;;18.99;24.08
54924;BME280;40825;52.270;20.984;2023-05-09T11:18:15;101676.97;;;18.91;24.00
54924;BME280;40825;52.270;20.984;2023-05-09T11:20:43;101671.45;;;18.88;24.22
54924;BME280;40825;52.270;20.984;2023-05-09T11:23:09;101665.41;;;18.81;24.49
54924;BME280;40825;52.270;20.984;2023-05-09T11:25:38;101668.36;;;18.71;24.09
54924;BME280;40825;52.270;20.984;2023-05-09T11:28:04;101666.09;;;18.65;24.47
54924;BME280;40825;52.270;20.984;2023-05-09T11:30:50;101661.17;;;18.58;24.28
54924;BME280;40825;52.270;20.984;2023-05-09T11:33:23;101654.63;;;18.61;24.93
54924;BME280;40825;52.270;20.984;2023-05-09T11:38:40;101642.48;;;18.78;24.92
54924;BME280;40825;52.270;20.984;2023-05-09T11:41:07;101635.70;;;18.77;25.32
54924;BME280;40825;52.270;20.984;2023-05-09T11:43:33;101633.38;;;18.69;25.63
54924;BME280;40825;52.270;20.984;2023-05-09T11:45:59;101637.38;;;18.55;24.91
54924;BME280;40825;52.270;20.984;2023-05-09T11:48:24;101629.21;;;18.48;25.20
54924;BME280;40825;52.270;20.984;2023-05-09T11:50:50;101621.34;;;18.54;25.41
54924;BME280;40825;52.270;20.984;2023-05-09T11:53:15;101610.91;;;18.51;25.29
54924;BME280;40825;52.270;20.984;2023-05-09T11:55:41;101612.77;;;18.51;25.62
54924;BME280;40825;52.270;20.984;2023-05-09T11:58:07;101611.41;;;18.40;25.42
54924;BME280;40825;52.270;20.984;2023-05-09T12:00:33;101605.67;;;18.33;25.38
54924;BME280;40825;52.270;20.984;2023-05-09T12:03:04;101602.36;;;18.32;25.68
54924;BME280;40825;52.270;20.984;2023-05-09T12:05:29;101606.96;;;18.31;25.24
54924;BME280;40825;52.270;20.984;2023-05-09T12:08:01;101608.52;;;18.12;24.97
54924;BME280;40825;52.270;20.984;2023-05-09T12:10:27;101602.08;;;18.01;25.32
54924;BME280;40825;52.270;20.984;2023-05-09T12:12:53;101602.64;;;17.95;25.80
54924;BME280;40825;52.270;20.984;2023-05-09T12:15:20;101599.90;;;17.89;25.76
54924;BME280;40825;52.270;20.984;2023-05-09T12:17:46;101593.78;;;17.74;25.93
54924;BME280;40825;52.270;20.984;2023-05-09T12:20:12;101588.86;;;17.80;26.24
54924;BME280;40825;52.270;20.984;2023-05-09T12:22:42;101582.83;;;17.83;26.05
54924;BME280;40825;52.270;20.984;2023-05-09T12:25:09;101582.05;;;17.97;26.92
54924;BME280;40825;52.270;20.984;2023-05-09T12:27:37;101582.40;;;18.05;26.67
54924;BME280;40825;52.270;20.984;2023-05-09T12:30:07;101581.64;;;18.11;25.94
54924;BME280;40825;52.270;20.984;2023-05-09T12:32:35;101575.61;;;18.05;25.85
54924;BME280;40825;52.270;20.984;2023-05-09T12:35:03;101573.36;;;17.98;25.15
54924;BME280;40825;52.270;20.984;2023-05-09T12:37:30;101566.57;;;17.93;25.15
54924;BME280;40825;52.270;20.984;2023-05-09T12:39:59;101558.04;;;18.05;25.78
54924;BME280;40825;52.270;20.984;2023-05-09T12:42:28;101560.02;;;18.20;25.94
54924;BME280;40825;52.270;20.984;2023-05-09T12:44:54;101555.17;;;18.31;25.98
54924;BME280;40825;52.270;20.984;2023-05-09T12:47:21;101551.44;;;18.29;26.04
54924;BME280;40825;52.270;20.984;2023-05-09T12:49:49;101552.66;;;18.32;26.69
54924;BME280;40825;52.270;20.984;2023-05-09T12:52:17;101549.19;;;18.36;26.70
54924;BME280;40825;52.270;20.984;2023-05-09T12:54:47;101545.78;;;18.28;26.27
54924;BME280;40825;52.270;20.984;2023-05-09T12:57:23;101542.74;;;18.19;26.16